sensor_id;sensor_type;location;lat;lon;timestamp;P1;durP1;ratioP1;P2;durP2;ratioP2
73816;SDS011;62146;53.232;-1.304;2022-11-15T00:00:47;10.38;;;6.30;;
73816;SDS011;62146;53.232;-1.304;2022-11-15T00:03:15;12.33;;;6.70;;
73816;SDS011;62146;53.232;-1.304;2022-11-15T00:05:42;11.85;;;6.07;;
73816;SDS011;62146;53.232;-1.304;2022-11-15T00:08:09;11.48;;;6.40;;
73816;SDS011;62146;53.232;-1.304;2022-11-15T00:10:36;9.90;;;5.30;;
73816;SDS011;62146;53.232;-1.304;2022-11-15T00:13:06;9.48;;;5.55;;
73816;SDS011;62146;53.232;-1.304;2022-11-15T00:15:35;9.90;;;5.10;;
73816;SDS011;62146;53.232;-1.304;2022-11-15T00:18:06;9.57;;;4.93;;
73816;SDS011;62146;53.232;-1.304;2022-11-15T00:20:38;9.73;;;4.80;;
73816;SDS011;62146;53.232;-1.304;2022-11-15T00:23:04;13.45;;;5.00;;
73816;SDS011;62146;53.232;-1.304;2022-11-15T00:25:32;7.70;;;4.15;;
73816;SDS011;62146;53.232;-1.304;2022-11-15T00:27:59;8.17;;;4.40;;
73816;SDS011;62146;53.232;-1.304;2022-11-15T00:30:26;7.30;;;3.85;;
73816;SDS011;62146;53.232;-1.304;2022-11-15T00:32:54;7.63;;;3.63;;
73816;SDS011;62146;53.232;-1.304;2022-11-15T00:35:21;8.55;;;3.83;;
73816;SDS011;62146;53.232;-1.304;2022-11-15T00:37:48;8.18;;;3.70;;
73816;SDS011;62146;53.232;-1.304;2022-11-15T00:40:15;9.37;;;3.87;;
73816;SDS011;62146;53.232;-1.304;2022-11-15T00:42:41;6.20;;;3.50;;
73816;SDS011;62146;53.232;-1.304;2022-11-15T00:45:08;6.50;;;3.47;;
73816;SDS011;62146;53.232;-1.304;2022-11-15T00:47:35;9.23;;;3.83;;
73816;SDS011;62146;53.232;-1.304;2022-11-15T00:50:02;6.70;;;3.50;;
73816;SDS011;62146;53.232;-1.304;2022-11-15T00:52:29;7.87;;;3.53;;
73816;SDS011;62146;53.232;-1.304;2022-11-15T00:54:56;9.18;;;3.17;;
73816;SDS011;62146;53.232;-1.304;2022-11-15T00:57:23;6.60;;;2.90;;
73816;SDS011;62146;53.232;-1.304;2022-11-15T00:59:49;7.25;;;3.00;;
73816;SDS011;62146;53.232;-1.304;2022-11-15T01:02:15;7.20;;;3.08;;
73816;SDS011;62146;53.232;-1.304;2022-11-15T01:04:42;6.10;;;2.40;;
73816;SDS011;62146;53.232;-1.304;2022-11-15T01:07:09;5.63;;;2.75;;
73816;SDS011;62146;53.232;-1.304;2022-11-15T01:09:35;5.45;;;2.53;;
73816;SDS011;62146;53.232;-1.304;2022-11-15T01:12:02;6.72;;;2.63;;
73816;SDS011;62146;53.232;-1.304;2022-11-15T01:14:28;6.20;;;2.50;;
73816;SDS011;62146;53.232;-1.304;2022-11-15T01:16:55;6.67;;;2.60;;
73816;SDS011;62146;53.232;-1.304;2022-11-15T01:19:22;5.90;;;2.70;;
73816;SDS011;62146;53.232;-1.304;2022-11-15T01:21:49;5.55;;;2.63;;
73816;SDS011;62146;53.232;-1.304;2022-11-15T01:24:16;6.72;;;2.42;;
73816;SDS011;62146;53.232;-1.304;2022-11-15T01:26:43;6.10;;;2.40;;
73816;SDS011;62146;53.232;-1.304;2022-11-15T01:29:09;7.60;;;2.80;;
73816;SDS011;62146;53.232;-1.304;2022-11-15T01:31:36;4.95;;;2.33;;
73816;SDS011;62146;53.232;-1.304;2022-11-15T01:34:02;6.57;;;2.33;;
73816;SDS011;62146;53.232;-1.304;2022-11-15T01:36:29;4.25;;;2.00;;
73816;SDS011;62146;53.232;-1.304;2022-11-15T01:38:56;6.00;;;2.20;;
73816;SDS011;62146;53.232;-1.304;2022-11-15T01:41:28;5.90;;;2.30;;
73816;SDS011;62146;53.232;-1.304;2022-11-15T01:43:58;5.85;;;2.00;;
73816;SDS011;62146;53.232;-1.304;2022-11-15T01:47:07;5.00;;;2.28;;
73816;SDS011;62146;53.232;-1.304;2022-11-15T01:49:39;6.35;;;1.98;;
73816;SDS011;62146;53.232;-1.304;2022-11-15T01:52:15;5.40;;;1.90;;
73816;SDS011;62146;53.232;-1.304;2022-11-15T01:54:45;5.73;;;1.97;;
73816;SDS011;62146;53.232;-1.304;2022-11-15T01:57:13;6.47;;;1.90;;
73816;SDS011;62146;53.232;-1.304;2022-11-15T01:59:40;5.70;;;1.90;;
73816;SDS011;62146;53.232;-1.304;2022-11-15T02:02:09;4.97;;;1.60;;
73816;SDS011;62146;53.232;-1.304;2022-11-15T02:04:37;6.95;;;1.70;;
73816;SDS011;62146;53.232;-1.304;2022-11-15T02:07:12;4.97;;;1.70;;
73816;SDS011;62146;53.232;-1.304;2022-11-15T02:09:42;6.07;;;1.52;;
73816;SDS011;62146;53.232;-1.304;2022-11-15T02:12:10;3.83;;;1.70;;
73816;SDS011;62146;53.232;-1.304;2022-11-15T02:14:39;6.05;;;2.00;;
73816;SDS011;62146;53.232;-1.304;2022-11-15T02:20:35;5.83;;;1.53;;
73816;SDS011;62146;53.232;-1.304;2022-11-15T02:23:13;6.00;;;1.60;;
73816;SDS011;62146;53.232;-1.304;2022-11-15T02:31:14;5.82;;;1.52;;
73816;SDS011;62146;53.232;-1.304;2022-11-15T02:37:03;4.40;;;1.63;;
73816;SDS011;62146;53.232;-1.304;2022-11-15T02:39:36;4.00;;;1.40;;
73816;SDS011;62146;53.232;-1.304;2022-11-15T02:42:11;4.72;;;1.48;;
73816;SDS011;62146;53.232;-1.304;2022-11-15T02:45:03;5.18;;;1.40;;
73816;SDS011;62146;53.232;-1.304;2022-11-15T02:47:37;6.63;;;1.70;;
73816;SDS011;62146;53.232;-1.304;2022-11-15T02:50:13;4.75;;;1.40;;
73816;SDS011;62146;53.232;-1.304;2022-11-15T02:52:47;6.93;;;1.83;;
73816;SDS011;62146;53.232;-1.304;2022-11-15T02:55:34;5.85;;;1.25;;
73816;SDS011;62146;53.232;-1.304;2022-11-15T03:09:17;4.43;;;1.20;;
73816;SDS011;62146;53.232;-1.304;2022-11-15T03:11:50;5.00;;;1.52;;
73816;SDS011;62146;53.232;-1.304;2022-11-15T03:14:29;4.50;;;1.20;;
73816;SDS011;62146;53.232;-1.304;2022-11-15T03:17:09;5.40;;;1.15;;
73816;SDS011;62146;53.232;-1.304;2022-11-15T03:19:55;7.50;;;1.40;;
73816;SDS011;62146;53.232;-1.304;2022-11-15T03:22:26;6.30;;;1.50;;
73816;SDS011;62146;53.232;-1.304;2022-11-15T03:24:57;4.45;;;1.20;;
73816;SDS011;62146;53.232;-1.304;2022-11-15T03:27:28;7.03;;;1.30;;
73816;SDS011;62146;53.232;-1.304;2022-11-15T03:30:00;9.38;;;1.30;;
73816;SDS011;62146;53.232;-1.304;2022-11-15T03:32:31;5.78;;;1.23;;
73816;SDS011;62146;53.232;-1.304;2022-11-15T03:35:09;6.38;;;1.40;;
73816;SDS011;62146;53.232;-1.304;2022-11-15T03:37:48;3.70;;;1.15;;
73816;SDS011;62146;53.232;-1.304;2022-11-15T03:40:37;5.67;;;1.33;;
73816;SDS011;62146;53.232;-1.304;2022-11-15T03:45:43;5.32;;;1.17;;
73816;SDS011;62146;53.232;-1.304;2022-11-15T03:48:18;6.35;;;1.30;;
73816;SDS011;62146;53.232;-1.304;2022-11-15T03:50:50;5.60;;;1.10;;
73816;SDS011;62146;53.232;-1.304;2022-11-15T03:53:17;5.40;;;1.30;;
73816;SDS011;62146;53.232;-1.304;2022-11-15T03:55:43;6.85;;;1.20;;
73816;SDS011;62146;53.232;-1.304;2022-11-15T03:58:10;6.57;;;1.20;;
73816;SDS011;62146;53.232;-1.304;2022-11-15T04:00:37;6.88;;;1.20;;
73816;SDS011;62146;53.232;-1.304;2022-11-15T04:03:03;3.97;;;1.10;;
73816;SDS011;62146;53.232;-1.304;2022-11-15T04:05:30;4.63;;;1.30;;
73816;SDS011;62146;53.232;-1.304;2022-11-15T04:07:56;5.65;;;1.35;;
73816;SDS011;62146;53.232;-1.304;2022-11-15T04:10:23;5.50;;;1.20;;
73816;SDS011;62146;53.232;-1.304;2022-11-15T04:12:50;4.22;;;1.20;;
73816;SDS011;62146;53.232;-1.304;2022-11-15T04:15:17;6.43;;;1.20;;
73816;SDS011;62146;53.232;-1.304;2022-11-15T04:17:46;5.67;;;1.30;;
73816;SDS011;62146;53.232;-1.304;2022-11-15T04:20:18;5.60;;;1.50;;
73816;SDS011;62146;53.232;-1.304;2022-11-15T04:23:05;5.50;;;1.20;;
73816;SDS011;62146;53.232;-1.304;2022-11-15T04:25:54;4.78;;;1.10;;
73816;SDS011;62146;53.232;-1.304;2022-11-15T04:28:22;4.82;;;1.27;;
73816;SDS011;62146;53.232;-1.304;2022-11-15T04:30:49;4.33;;;1.30;;
73816;SDS011;62146;53.232;-1.304;2022-11-15T04:33:15;4.72;;;1.30;;
73816;SDS011;62146;53.232;-1.304;2022-11-15T04:35:42;6.10;;;1.30;;
73816;SDS011;62146;53.232;-1.304;2022-11-15T04:38:10;4.35;;;1.40;;
73816;SDS011;62146;53.232;-1.304;2022-11-15T04:40:37;7.18;;;1.27;;
73816;SDS011;62146;53.232;-1.304;2022-11-15T04:43:04;3.47;;;1.13;;
73816;SDS011;62146;53.232;-1.304;2022-11-15T04:45:31;7.82;;;1.52;;
73816;SDS011;62146;53.232;-1.304;2022-11-15T04:47:57;7.63;;;1.20;;
73816;SDS011;62146;53.232;-1.304;2022-11-15T04:50:24;10.80;;;1.50;;
73816;SDS011;62146;53.232;-1.304;2022-11-15T04:52:51;5.85;;;1.20;;
73816;SDS011;62146;53.232;-1.304;2022-11-15T04:55:19;7.47;;;1.30;;
73816;SDS011;62146;53.232;-1.304;2022-11-15T04:57:46;4.13;;;1.00;;
73816;SDS011;62146;53.232;-1.304;2022-11-15T05:00:14;6.85;;;1.20;;
73816;SDS011;62146;53.232;-1.304;2022-11-15T05:02:42;7.95;;;1.38;;
73816;SDS011;62146;53.232;-1.304;2022-11-15T05:05:31;4.55;;;1.15;;
73816;SDS011;62146;53.232;-1.304;2022-11-15T05:07:58;7.67;;;1.83;;
73816;SDS011;62146;53.232;-1.304;2022-11-15T05:10:24;6.32;;;1.30;;
73816;SDS011;62146;53.232;-1.304;2022-11-15T05:12:51;6.43;;;1.30;;
73816;SDS011;62146;53.232;-1.304;2022-11-15T05:15:17;5.30;;;1.08;;
73816;SDS011;62146;53.232;-1.304;2022-11-15T05:17:44;7.15;;;1.20;;
73816;SDS011;62146;53.232;-1.304;2022-11-15T05:20:11;7.77;;;1.23;;
73816;SDS011;62146;53.232;-1.304;2022-11-15T05:22:37;7.53;;;1.52;;
73816;SDS011;62146;53.232;-1.304;2022-11-15T05:25:04;5.57;;;1.30;;
73816;SDS011;62146;53.232;-1.304;2022-11-15T05:27:32;5.47;;;1.25;;
73816;SDS011;62146;53.232;-1.304;2022-11-15T05:30:00;5.10;;;1.25;;
73816;SDS011;62146;53.232;-1.304;2022-11-15T05:32:27;5.27;;;1.30;;
73816;SDS011;62146;53.232;-1.304;2022-11-15T05:34:54;7.22;;;1.30;;
73816;SDS011;62146;53.232;-1.304;2022-11-15T05:37:21;4.70;;;1.17;;
73816;SDS011;62146;53.232;-1.304;2022-11-15T05:39:47;6.43;;;1.40;;
73816;SDS011;62146;53.232;-1.304;2022-11-15T05:42:14;7.88;;;1.48;;
73816;SDS011;62146;53.232;-1.304;2022-11-15T05:44:43;7.70;;;1.17;;
73816;SDS011;62146;53.232;-1.304;2022-11-15T05:47:13;7.55;;;1.00;;
73816;SDS011;62146;53.232;-1.304;2022-11-15T05:49:43;5.05;;;1.33;;
73816;SDS011;62146;53.232;-1.304;2022-11-15T05:52:12;6.32;;;1.25;;
73816;SDS011;62146;53.232;-1.304;2022-11-15T05:54:42;8.10;;;1.80;;
73816;SDS011;62146;53.232;-1.304;2022-11-15T05:57:10;8.97;;;1.30;;
73816;SDS011;62146;53.232;-1.304;2022-11-15T05:59:37;5.53;;;1.33;;
73816;SDS011;62146;53.232;-1.304;2022-11-15T06:02:04;5.57;;;1.23;;
73816;SDS011;62146;53.232;-1.304;2022-11-15T06:04:30;4.80;;;1.10;;
73816;SDS011;62146;53.232;-1.304;2022-11-15T06:06:58;7.63;;;1.67;;
73816;SDS011;62146;53.232;-1.304;2022-11-15T06:09:25;6.43;;;1.30;;
73816;SDS011;62146;53.232;-1.304;2022-11-15T06:11:51;4.72;;;1.25;;
73816;SDS011;62146;53.232;-1.304;2022-11-15T06:14:18;5.82;;;1.23;;
73816;SDS011;62146;53.232;-1.304;2022-11-15T06:16:50;4.93;;;1.55;;
73816;SDS011;62146;53.232;-1.304;2022-11-15T06:19:17;7.22;;;1.70;;
73816;SDS011;62146;53.232;-1.304;2022-11-15T06:21:43;5.00;;;1.50;;
73816;SDS011;62146;53.232;-1.304;2022-11-15T06:24:10;7.03;;;1.83;;
73816;SDS011;62146;53.232;-1.304;2022-11-15T06:26:36;5.85;;;1.60;;
73816;SDS011;62146;53.232;-1.304;2022-11-15T06:29:03;4.95;;;1.40;;
73816;SDS011;62146;53.232;-1.304;2022-11-15T06:31:30;5.50;;;1.42;;
73816;SDS011;62146;53.232;-1.304;2022-11-15T06:33:57;5.83;;;1.30;;
73816;SDS011;62146;53.232;-1.304;2022-11-15T06:36:23;4.97;;;1.35;;
73816;SDS011;62146;53.232;-1.304;2022-11-15T06:38:50;7.32;;;1.95;;
73816;SDS011;62146;53.232;-1.304;2022-11-15T06:41:17;5.82;;;1.63;;
73816;SDS011;62146;53.232;-1.304;2022-11-15T06:43:43;5.72;;;1.48;;
73816;SDS011;62146;53.232;-1.304;2022-11-15T06:46:10;5.80;;;1.47;;
73816;SDS011;62146;53.232;-1.304;2022-11-15T06:48:37;4.47;;;1.27;;
73816;SDS011;62146;53.232;-1.304;2022-11-15T06:51:04;5.35;;;1.58;;
73816;SDS011;62146;53.232;-1.304;2022-11-15T06:53:31;6.70;;;1.42;;
73816;SDS011;62146;53.232;-1.304;2022-11-15T06:56:02;4.10;;;1.45;;
73816;SDS011;62146;53.232;-1.304;2022-11-15T06:58:30;4.33;;;1.20;;
73816;SDS011;62146;53.232;-1.304;2022-11-15T07:01:01;5.60;;;1.33;;
73816;SDS011;62146;53.232;-1.304;2022-11-15T07:03:30;5.45;;;1.50;;
73816;SDS011;62146;53.232;-1.304;2022-11-15T07:05:57;5.60;;;1.40;;
73816;SDS011;62146;53.232;-1.304;2022-11-15T07:08:32;5.75;;;1.33;;
73816;SDS011;62146;53.232;-1.304;2022-11-15T07:10:59;4.57;;;1.53;;
73816;SDS011;62146;53.232;-1.304;2022-11-15T07:13:28;7.35;;;1.73;;
73816;SDS011;62146;53.232;-1.304;2022-11-15T07:16:03;4.85;;;1.20;;
73816;SDS011;62146;53.232;-1.304;2022-11-15T07:18:31;5.95;;;1.40;;
73816;SDS011;62146;53.232;-1.304;2022-11-15T07:21:04;5.20;;;1.40;;
73816;SDS011;62146;53.232;-1.304;2022-11-15T07:23:32;4.37;;;1.33;;
73816;SDS011;62146;53.232;-1.304;2022-11-15T07:25:59;5.65;;;1.65;;
73816;SDS011;62146;53.232;-1.304;2022-11-15T07:28:26;4.28;;;1.60;;
73816;SDS011;62146;53.232;-1.304;2022-11-15T07:30:53;3.72;;;1.50;;
73816;SDS011;62146;53.232;-1.304;2022-11-15T07:33:20;6.80;;;1.70;;
73816;SDS011;62146;53.232;-1.304;2022-11-15T07:35:47;3.50;;;1.20;;
73816;SDS011;62146;53.232;-1.304;2022-11-15T07:38:14;4.65;;;1.27;;
73816;SDS011;62146;53.232;-1.304;2022-11-15T07:40:42;6.70;;;1.60;;
73816;SDS011;62146;53.232;-1.304;2022-11-15T07:43:08;6.75;;;1.88;;
73816;SDS011;62146;53.232;-1.304;2022-11-15T07:45:39;4.78;;;1.42;;
73816;SDS011;62146;53.232;-1.304;2022-11-15T07:48:07;5.77;;;1.50;;
73816;SDS011;62146;53.232;-1.304;2022-11-15T07:50:33;4.53;;;1.50;;
73816;SDS011;62146;53.232;-1.304;2022-11-15T07:53:00;4.88;;;1.50;;
73816;SDS011;62146;53.232;-1.304;2022-11-15T07:55:27;6.63;;;1.52;;
73816;SDS011;62146;53.232;-1.304;2022-11-15T07:58:01;4.80;;;1.50;;
73816;SDS011;62146;53.232;-1.304;2022-11-15T08:00:31;5.50;;;1.40;;
73816;SDS011;62146;53.232;-1.304;2022-11-15T08:03:06;6.38;;;1.80;;
73816;SDS011;62146;53.232;-1.304;2022-11-15T08:05:34;4.78;;;1.65;;
73816;SDS011;62146;53.232;-1.304;2022-11-15T08:08:02;5.10;;;1.65;;
73816;SDS011;62146;53.232;-1.304;2022-11-15T08:10:29;4.85;;;1.80;;
73816;SDS011;62146;53.232;-1.304;2022-11-15T08:13:00;9.63;;;2.13;;
73816;SDS011;62146;53.232;-1.304;2022-11-15T08:15:33;6.90;;;1.70;;
73816;SDS011;62146;53.232;-1.304;2022-11-15T08:18:05;6.28;;;1.60;;
73816;SDS011;62146;53.232;-1.304;2022-11-15T08:20:34;5.10;;;1.60;;
73816;SDS011;62146;53.232;-1.304;2022-11-15T08:23:02;4.80;;;1.50;;
73816;SDS011;62146;53.232;-1.304;2022-11-15T08:25:30;4.27;;;1.60;;
73816;SDS011;62146;53.232;-1.304;2022-11-15T08:28:02;5.15;;;1.50;;
73816;SDS011;62146;53.232;-1.304;2022-11-15T08:30:33;4.75;;;1.80;;
73816;SDS011;62146;53.232;-1.304;2022-11-15T08:33:02;5.07;;;1.73;;
73816;SDS011;62146;53.232;-1.304;2022-11-15T08:35:29;7.10;;;1.80;;
73816;SDS011;62146;53.232;-1.304;2022-11-15T08:37:55;6.37;;;2.00;;
73816;SDS011;62146;53.232;-1.304;2022-11-15T08:40:22;5.55;;;1.70;;
73816;SDS011;62146;53.232;-1.304;2022-11-15T08:42:49;4.85;;;1.70;;
73816;SDS011;62146;53.232;-1.304;2022-11-15T08:45:15;4.38;;;1.60;;
73816;SDS011;62146;53.232;-1.304;2022-11-15T08:47:42;5.45;;;1.58;;
73816;SDS011;62146;53.232;-1.304;2022-11-15T08:50:09;4.47;;;1.93;;
73816;SDS011;62146;53.232;-1.304;2022-11-15T08:52:35;5.47;;;1.70;;
73816;SDS011;62146;53.232;-1.304;2022-11-15T08:55:02;4.25;;;1.50;;
73816;SDS011;62146;53.232;-1.304;2022-11-15T08:57:29;4.90;;;1.58;;
73816;SDS011;62146;53.232;-1.304;2022-11-15T08:59:59;5.43;;;1.90;;
73816;SDS011;62146;53.232;-1.304;2022-11-15T09:02:25;8.23;;;2.60;;
73816;SDS011;62146;53.232;-1.304;2022-11-15T09:04:52;5.55;;;1.95;;
73816;SDS011;62146;53.232;-1.304;2022-11-15T09:07:18;9.45;;;3.55;;
73816;SDS011;62146;53.232;-1.304;2022-11-15T09:09:45;9.85;;;3.33;;
73816;SDS011;62146;53.232;-1.304;2022-11-15T09:12:12;9.48;;;3.25;;
73816;SDS011;62146;53.232;-1.304;2022-11-15T09:14:39;9.07;;;3.50;;
73816;SDS011;62146;53.232;-1.304;2022-11-15T09:17:08;10.65;;;3.78;;
73816;SDS011;62146;53.232;-1.304;2022-11-15T09:19:35;9.55;;;3.88;;
73816;SDS011;62146;53.232;-1.304;2022-11-15T09:22:01;9.90;;;4.00;;
73816;SDS011;62146;53.232;-1.304;2022-11-15T09:24:28;10.13;;;3.55;;
73816;SDS011;62146;53.232;-1.304;2022-11-15T09:26:54;9.20;;;3.90;;
73816;SDS011;62146;53.232;-1.304;2022-11-15T09:29:21;11.15;;;4.20;;
73816;SDS011;62146;53.232;-1.304;2022-11-15T09:31:47;9.98;;;4.20;;
73816;SDS011;62146;53.232;-1.304;2022-11-15T09:34:14;9.77;;;3.92;;
73816;SDS011;62146;53.232;-1.304;2022-11-15T09:36:41;8.50;;;3.40;;
73816;SDS011;62146;53.232;-1.304;2022-11-15T09:39:07;8.40;;;3.40;;
73816;SDS011;62146;53.232;-1.304;2022-11-15T09:49:56;9.82;;;2.70;;
73816;SDS011;62146;53.232;-1.304;2022-11-15T09:52:24;6.20;;;2.60;;
73816;SDS011;62146;53.232;-1.304;2022-11-15T09:54:52;8.07;;;2.72;;
73816;SDS011;62146;53.232;-1.304;2022-11-15T09:57:30;7.03;;;2.67;;
73816;SDS011;62146;53.232;-1.304;2022-11-15T10:02:46;6.68;;;2.35;;
73816;SDS011;62146;53.232;-1.304;2022-11-15T10:05:24;6.70;;;2.33;;
73816;SDS011;62146;53.232;-1.304;2022-11-15T10:13:50;4.88;;;2.08;;
73816;SDS011;62146;53.232;-1.304;2022-11-15T10:16:25;6.05;;;2.10;;
73816;SDS011;62146;53.232;-1.304;2022-11-15T10:24:28;5.85;;;2.05;;
73816;SDS011;62146;53.232;-1.304;2022-11-15T10:27:01;5.30;;;1.92;;
73816;SDS011;62146;53.232;-1.304;2022-11-15T10:29:27;5.40;;;1.77;;
73816;SDS011;62146;53.232;-1.304;2022-11-15T10:31:54;4.13;;;1.70;;
73816;SDS011;62146;53.232;-1.304;2022-11-15T10:34:21;4.93;;;1.60;;
73816;SDS011;62146;53.232;-1.304;2022-11-15T10:36:56;7.60;;;1.83;;
73816;SDS011;62146;53.232;-1.304;2022-11-15T10:39:24;4.38;;;1.48;;
73816;SDS011;62146;53.232;-1.304;2022-11-15T10:41:51;5.60;;;1.40;;
73816;SDS011;62146;53.232;-1.304;2022-11-15T10:44:51;4.30;;;1.40;;
73816;SDS011;62146;53.232;-1.304;2022-11-15T10:47:24;4.65;;;1.25;;
73816;SDS011;62146;53.232;-1.304;2022-11-15T10:49:59;3.60;;;1.40;;
73816;SDS011;62146;53.232;-1.304;2022-11-15T10:52:32;5.07;;;1.40;;
73816;SDS011;62146;53.232;-1.304;2022-11-15T10:57:37;3.60;;;1.23;;
73816;SDS011;62146;53.232;-1.304;2022-11-15T11:05:29;4.40;;;1.27;;
73816;SDS011;62146;53.232;-1.304;2022-11-15T11:10:37;3.80;;;1.10;;
73816;SDS011;62146;53.232;-1.304;2022-11-15T11:13:28;3.92;;;1.17;;
73816;SDS011;62146;53.232;-1.304;2022-11-15T11:21:55;4.40;;;1.17;;
73816;SDS011;62146;53.232;-1.304;2022-11-15T11:24:41;3.10;;;1.00;;
73816;SDS011;62146;53.232;-1.304;2022-11-15T11:30:00;3.15;;;0.95;;
73816;SDS011;62146;53.232;-1.304;2022-11-15T11:38:05;3.60;;;1.00;;
73816;SDS011;62146;53.232;-1.304;2022-11-15T11:41:04;3.90;;;1.00;;
73816;SDS011;62146;53.232;-1.304;2022-11-15T11:43:40;3.13;;;1.02;;
73816;SDS011;62146;53.232;-1.304;2022-11-15T11:48:56;5.43;;;2.00;;
73816;SDS011;62146;53.232;-1.304;2022-11-15T11:51:39;5.03;;;1.80;;
73816;SDS011;62146;53.232;-1.304;2022-11-15T11:56:41;5.45;;;2.05;;
73816;SDS011;62146;53.232;-1.304;2022-11-15T11:59:19;5.38;;;2.20;;
73816;SDS011;62146;53.232;-1.304;2022-11-15T12:01:51;5.05;;;2.05;;
73816;SDS011;62146;53.232;-1.304;2022-11-15T12:04:20;5.70;;;2.13;;
73816;SDS011;62146;53.232;-1.304;2022-11-15T12:06:55;5.43;;;2.20;;
73816;SDS011;62146;53.232;-1.304;2022-11-15T12:09:32;5.00;;;1.90;;
73816;SDS011;62146;53.232;-1.304;2022-11-15T12:12:06;5.28;;;2.20;;
73816;SDS011;62146;53.232;-1.304;2022-11-15T12:17:10;4.87;;;1.77;;
73816;SDS011;62146;53.232;-1.304;2022-11-15T12:19:38;4.30;;;1.80;;
73816;SDS011;62146;53.232;-1.304;2022-11-15T12:22:13;4.18;;;1.98;;
73816;SDS011;62146;53.232;-1.304;2022-11-15T12:24:56;4.95;;;1.98;;
73816;SDS011;62146;53.232;-1.304;2022-11-15T12:30:03;4.80;;;1.63;;
73816;SDS011;62146;53.232;-1.304;2022-11-15T12:32:36;4.13;;;1.50;;
73816;SDS011;62146;53.232;-1.304;2022-11-15T12:35:05;5.88;;;1.70;;
73816;SDS011;62146;53.232;-1.304;2022-11-15T12:37:48;3.78;;;1.55;;
73816;SDS011;62146;53.232;-1.304;2022-11-15T12:40:31;4.70;;;1.63;;
73816;SDS011;62146;53.232;-1.304;2022-11-15T12:43:02;4.03;;;1.57;;
73816;SDS011;62146;53.232;-1.304;2022-11-15T12:45:42;3.72;;;1.58;;
73816;SDS011;62146;53.232;-1.304;2022-11-15T12:53:32;4.72;;;1.65;;
73816;SDS011;62146;53.232;-1.304;2022-11-15T12:58:43;4.13;;;1.60;;
73816;SDS011;62146;53.232;-1.304;2022-11-15T13:12:00;4.20;;;1.70;;
73816;SDS011;62146;53.232;-1.304;2022-11-15T13:22:27;4.27;;;1.63;;
73816;SDS011;62146;53.232;-1.304;2022-11-15T13:30:48;5.10;;;1.45;;
73816;SDS011;62146;53.232;-1.304;2022-11-15T13:33:26;4.65;;;1.42;;
73816;SDS011;62146;53.232;-1.304;2022-11-15T13:36:09;3.23;;;1.20;;
73816;SDS011;62146;53.232;-1.304;2022-11-15T13:38:41;4.15;;;1.50;;
73816;SDS011;62146;53.232;-1.304;2022-11-15T13:41:18;3.95;;;1.40;;
73816;SDS011;62146;53.232;-1.304;2022-11-15T13:43:47;4.13;;;1.35;;
73816;SDS011;62146;53.232;-1.304;2022-11-15T13:48:47;3.00;;;1.20;;
73816;SDS011;62146;53.232;-1.304;2022-11-15T13:54:09;2.90;;;1.20;;
73816;SDS011;62146;53.232;-1.304;2022-11-15T13:56:44;2.47;;;0.95;;
73816;SDS011;62146;53.232;-1.304;2022-11-15T13:59:57;3.13;;;0.93;;
73816;SDS011;62146;53.232;-1.304;2022-11-15T14:02:12;3.00;;;1.00;;
73816;SDS011;62146;53.232;-1.304;2022-11-15T14:04:48;3.45;;;1.02;;
73816;SDS011;62146;53.232;-1.304;2022-11-15T14:07:18;3.85;;;1.25;;
73816;SDS011;62146;53.232;-1.304;2022-11-15T14:09:46;2.88;;;1.10;;
73816;SDS011;62146;53.232;-1.304;2022-11-15T14:12:28;3.40;;;0.90;;
73816;SDS011;62146;53.232;-1.304;2022-11-15T14:14:55;2.90;;;0.80;;
73816;SDS011;62146;53.232;-1.304;2022-11-15T14:19:56;2.72;;;0.93;;
73816;SDS011;62146;53.232;-1.304;2022-11-15T14:22:24;2.25;;;0.80;;
73816;SDS011;62146;53.232;-1.304;2022-11-15T14:27:39;1.97;;;0.70;;
73816;SDS011;62146;53.232;-1.304;2022-11-15T14:30:12;2.95;;;1.00;;
73816;SDS011;62146;53.232;-1.304;2022-11-15T14:32:50;2.70;;;0.93;;
73816;SDS011;62146;53.232;-1.304;2022-11-15T14:35:18;2.03;;;0.73;;
73816;SDS011;62146;53.232;-1.304;2022-11-15T14:37:46;2.30;;;0.80;;
73816;SDS011;62146;53.232;-1.304;2022-11-15T14:40:17;3.67;;;1.00;;
73816;SDS011;62146;53.232;-1.304;2022-11-15T14:42:48;2.20;;;0.77;;
73816;SDS011;62146;53.232;-1.304;2022-11-15T14:45:16;2.88;;;0.88;;
73816;SDS011;62146;53.232;-1.304;2022-11-15T14:47:47;2.90;;;1.02;;
73816;SDS011;62146;53.232;-1.304;2022-11-15T14:50:18;2.95;;;1.00;;
73816;SDS011;62146;53.232;-1.304;2022-11-15T14:52:46;3.10;;;1.00;;
73816;SDS011;62146;53.232;-1.304;2022-11-15T14:55:21;2.92;;;1.10;;
73816;SDS011;62146;53.232;-1.304;2022-11-15T14:57:50;2.45;;;1.00;;
73816;SDS011;62146;53.232;-1.304;2022-11-15T15:00:18;2.65;;;0.90;;
73816;SDS011;62146;53.232;-1.304;2022-11-15T15:02:46;2.65;;;1.10;;
73816;SDS011;62146;53.232;-1.304;2022-11-15T15:05:18;2.73;;;0.93;;
73816;SDS011;62146;53.232;-1.304;2022-11-15T15:07:49;3.22;;;0.90;;
73816;SDS011;62146;53.232;-1.304;2022-11-15T15:10:17;2.50;;;0.95;;
73816;SDS011;62146;53.232;-1.304;2022-11-15T15:13:05;2.00;;;0.90;;
73816;SDS011;62146;53.232;-1.304;2022-11-15T15:15:36;2.38;;;0.90;;
73816;SDS011;62146;53.232;-1.304;2022-11-15T15:18:04;2.63;;;0.80;;
73816;SDS011;62146;53.232;-1.304;2022-11-15T15:20:31;2.67;;;1.05;;
73816;SDS011;62146;53.232;-1.304;2022-11-15T15:22:58;2.47;;;0.95;;
73816;SDS011;62146;53.232;-1.304;2022-11-15T15:25:29;2.50;;;0.90;;
73816;SDS011;62146;53.232;-1.304;2022-11-15T15:28:01;2.50;;;1.10;;
73816;SDS011;62146;53.232;-1.304;2022-11-15T15:30:28;3.00;;;1.10;;
73816;SDS011;62146;53.232;-1.304;2022-11-15T15:32:56;3.20;;;1.08;;
73816;SDS011;62146;53.232;-1.304;2022-11-15T15:35:23;3.70;;;1.30;;
73816;SDS011;62146;53.232;-1.304;2022-11-15T15:37:54;3.28;;;1.20;;
73816;SDS011;62146;53.232;-1.304;2022-11-15T15:40:21;3.45;;;1.48;;
73816;SDS011;62146;53.232;-1.304;2022-11-15T15:42:50;3.57;;;0.97;;
73816;SDS011;62146;53.232;-1.304;2022-11-15T15:45:17;3.58;;;1.20;;
73816;SDS011;62146;53.232;-1.304;2022-11-15T15:47:44;4.20;;;1.30;;
73816;SDS011;62146;53.232;-1.304;2022-11-15T15:50:14;2.63;;;1.00;;
73816;SDS011;62146;53.232;-1.304;2022-11-15T15:52:54;3.78;;;1.10;;
73816;SDS011;62146;53.232;-1.304;2022-11-15T15:55:23;4.03;;;1.10;;
73816;SDS011;62146;53.232;-1.304;2022-11-15T15:57:50;3.45;;;0.80;;
73816;SDS011;62146;53.232;-1.304;2022-11-15T16:00:17;3.63;;;1.00;;
73816;SDS011;62146;53.232;-1.304;2022-11-15T16:02:45;2.10;;;0.80;;
73816;SDS011;62146;53.232;-1.304;2022-11-15T16:05:11;2.20;;;0.80;;
73816;SDS011;62146;53.232;-1.304;2022-11-15T16:07:38;3.50;;;0.83;;
73816;SDS011;62146;53.232;-1.304;2022-11-15T16:10:20;2.90;;;0.98;;
73816;SDS011;62146;53.232;-1.304;2022-11-15T16:12:47;3.67;;;1.17;;
73816;SDS011;62146;53.232;-1.304;2022-11-15T16:15:14;3.90;;;1.00;;
73816;SDS011;62146;53.232;-1.304;2022-11-15T16:17:44;3.33;;;0.90;;
73816;SDS011;62146;53.232;-1.304;2022-11-15T16:20:35;2.73;;;0.90;;
73816;SDS011;62146;53.232;-1.304;2022-11-15T16:23:06;3.67;;;1.13;;
73816;SDS011;62146;53.232;-1.304;2022-11-15T16:25:42;5.80;;;1.00;;
73816;SDS011;62146;53.232;-1.304;2022-11-15T16:28:14;3.03;;;1.10;;
73816;SDS011;62146;53.232;-1.304;2022-11-15T16:31:08;2.85;;;1.10;;
73816;SDS011;62146;53.232;-1.304;2022-11-15T16:33:36;3.57;;;1.20;;
73816;SDS011;62146;53.232;-1.304;2022-11-15T16:36:04;3.05;;;1.27;;
73816;SDS011;62146;53.232;-1.304;2022-11-15T16:38:32;3.47;;;1.15;;
73816;SDS011;62146;53.232;-1.304;2022-11-15T16:40:59;3.13;;;1.30;;
73816;SDS011;62146;53.232;-1.304;2022-11-15T16:43:26;3.53;;;1.50;;
73816;SDS011;62146;53.232;-1.304;2022-11-15T16:45:53;5.20;;;1.70;;
73816;SDS011;62146;53.232;-1.304;2022-11-15T16:48:24;4.68;;;1.52;;
73816;SDS011;62146;53.232;-1.304;2022-11-15T16:50:55;4.32;;;1.75;;
73816;SDS011;62146;53.232;-1.304;2022-11-15T16:53:24;5.47;;;2.40;;
73816;SDS011;62146;53.232;-1.304;2022-11-15T16:55:51;5.88;;;2.20;;
73816;SDS011;62146;53.232;-1.304;2022-11-15T16:58:18;4.60;;;2.43;;